sensor_id;sensor_type;location;lat;lon;timestamp;pressure;altitude;pressure_sealevel;temperature;humidity
31096;BME280;17749;51.962;8.560;2023-02-20T06:03:27;100582.47;;;5.35;100.00
31096;BME280;17749;51.962;8.560;2023-02-20T06:05:54;100585.06;;;5.37;100.00
31096;BME280;17749;51.962;8.560;2023-02-20T06:08:22;100577.16;;;5.37;100.00
31096;BME280;17749;51.962;8.560;2023-02-20T06:10:48;100579.72;;;5.43;100.00
31096;BME280;17749;51.962;8.560;2023-02-20T06:13:15;100563.88;;;5.43;100.00
31096;BME280;17749;51.962;8.560;2023-02-20T06:15:42;100562.97;;;5.45;100.00
31096;BME280;17749;51.962;8.560;2023-02-20T06:18:09;100565.66;;;5.41;100.00
31096;BME280;17749;51.962;8.560;2023-02-20T06:20:36;100558.53;;;5.47;100.00
31096;BME280;17749;51.962;8.560;2023-02-20T06:23:03;100555.88;;;5.51;100.00
31096;BME280;17749;51.962;8.560;2023-02-20T06:25:30;100554.09;;;5.49;100.00
31096;BME280;17749;51.962;8.560;2023-02-20T06:27:57;100549.69;;;5.50;100.00
31096;BME280;17749;51.962;8.560;2023-02-20T06:30:24;100564.66;;;5.51;100.00
31096;BME280;17749;51.962;8.560;2023-02-20T06:32:51;100557.66;;;5.47;100.00
31096;BME280;17749;51.962;8.560;2023-02-20T06:35:17;100545.41;;;5.43;100.00
31096;BME280;17749;51.962;8.560;2023-02-20T06:37:44;100558.53;;;5.47;100.00
31096;BME280;17749;51.962;8.560;2023-02-20T06:40:12;100555.00;;;5.47;100.00
31096;BME280;17749;51.962;8.560;2023-02-20T06:42:39;100551.50;;;5.48;100.00
31096;BME280;17749;51.962;8.560;2023-02-20T06:45:06;100563.75;;;5.52;100.00
31096;BME280;17749;51.962;8.560;2023-02-20T06:47:33;100568.16;;;5.53;100.00
31096;BME280;17749;51.962;8.560;2023-02-20T06:50:00;100583.06;;;5.57;100.00
31096;BME280;17749;51.962;8.560;2023-02-20T06:52:26;100578.59;;;5.64;100.00
31096;BME280;17749;51.962;8.560;2023-02-20T06:54:53;100584.75;;;5.63;100.00
31096;BME280;17749;51.962;8.560;2023-02-20T06:57:20;100575.06;;;5.65;100.00
31096;BME280;17749;51.962;8.560;2023-02-20T06:59:47;100586.50;;;5.65;100.00
31096;BME280;17749;51.962;8.560;2023-02-20T07:02:16;100589.13;;;5.67;100.00
31096;BME280;17749;51.962;8.560;2023-02-20T07:04:47;100581.16;;;5.68;100.00
31096;BME280;17749;51.962;8.560;2023-02-20T07:07:14;100584.63;;;5.74;100.00
31096;BME280;17749;51.962;8.560;2023-02-20T07:09:41;100586.41;;;5.75;100.00
31096;BME280;17749;51.962;8.560;2023-02-20T07:12:10;100590.78;;;5.77;100.00
31096;BME280;17749;51.962;8.560;2023-02-20T07:14:37;100584.63;;;5.74;100.00
31096;BME280;17749;51.962;8.560;2023-02-20T07:17:04;100590.81;;;5.74;100.00
31096;BME280;17749;51.962;8.560;2023-02-20T07:19:31;100582.06;;;5.67;100.00
31096;BME280;17749;51.962;8.560;2023-02-20T07:21:58;100578.59;;;5.64;100.00
31096;BME280;17749;51.962;8.560;2023-02-20T07:24:25;100586.50;;;5.67;100.00
31096;BME280;17749;51.962;8.560;2023-02-20T07:26:52;100575.94;;;5.65;100.00
31096;BME280;17749;51.962;8.560;2023-02-20T07:29:18;100581.16;;;5.68;100.00
31096;BME280;17749;51.962;8.560;2023-02-20T07:31:45;100566.25;;;5.66;100.00
31096;BME280;17749;51.962;8.560;2023-02-20T07:34:12;100570.63;;;5.65;100.00
31096;BME280;17749;51.962;8.560;2023-02-20T07:36:41;100578.53;;;5.68;100.00
31096;BME280;17749;51.962;8.560;2023-02-20T07:39:09;100582.97;;;5.66;100.00
31096;BME280;17749;51.962;8.560;2023-02-20T07:41:36;100583.81;;;5.68;100.00
31096;BME280;17749;51.962;8.560;2023-02-20T07:44:04;100575.94;;;5.65;100.00
31096;BME280;17749;51.962;8.560;2023-02-20T07:46:32;100592.69;;;5.66;100.00
31096;BME280;17749;51.962;8.560;2023-02-20T07:49:01;100590.91;;;5.65;100.00
31096;BME280;17749;51.962;8.560;2023-02-20T07:51:31;100604.16;;;5.63;100.00
31096;BME280;17749;51.962;8.560;2023-02-20T07:54:02;100593.59;;;5.63;100.00
31096;BME280;17749;51.962;8.560;2023-02-20T07:56:29;100594.47;;;5.64;100.00
31096;BME280;17749;51.962;8.560;2023-02-20T07:58:56;100612.91;;;5.67;100.00
31096;BME280;17749;51.962;8.560;2023-02-20T08:01:26;100617.28;;;5.68;100.00
31096;BME280;17749;51.962;8.560;2023-02-20T08:03:53;100612.09;;;5.63;100.00
31096;BME280;17749;51.962;8.560;2023-02-20T08:06:20;100619.06;;;5.67;100.00
31096;BME280;17749;51.962;8.560;2023-02-20T08:08:51;100608.44;;;5.72;100.00
31096;BME280;17749;51.962;8.560;2023-02-20T08:11:18;100617.25;;;5.74;100.00
31096;BME280;17749;51.962;8.560;2023-02-20T08:13:46;100620.75;;;5.75;100.00
31096;BME280;17749;51.962;8.560;2023-02-20T08:16:13;100626.03;;;5.75;100.00
31096;BME280;17749;51.962;8.560;2023-02-20T08:18:40;100622.53;;;5.71;100.00
31096;BME280;17749;51.962;8.560;2023-02-20T08:21:07;100625.13;;;5.76;100.00
31096;BME280;17749;51.962;8.560;2023-02-20T08:23:34;100618.97;;;5.75;100.00
31096;BME280;17749;51.962;8.560;2023-02-20T08:26:02;100614.56;;;5.76;100.00
31096;BME280;17749;51.962;8.560;2023-02-20T08:28:29;100605.91;;;5.64;100.00
31096;BME280;17749;51.962;8.560;2023-02-20T08:30:56;100612.88;;;5.68;100.00
31096;BME280;17749;51.962;8.560;2023-02-20T08:33:23;100616.31;;;5.77;100.00
31096;BME280;17749;51.962;8.560;2023-02-20T08:35:50;100603.94;;;5.80;100.00
31096;BME280;17749;51.962;8.560;2023-02-20T08:38:38;100598.69;;;5.76;100.00
31096;BME280;17749;51.962;8.560;2023-02-20T08:41:07;100605.75;;;5.77;100.00
31096;BME280;17749;51.962;8.560;2023-02-20T08:43:37;100603.94;;;5.79;100.00
31096;BME280;17749;51.962;8.560;2023-02-20T08:46:06;100603.88;;;5.85;100.00
31096;BME280;17749;51.962;8.560;2023-02-20T08:48:34;100599.47;;;5.84;100.00
31096;BME280;17749;51.962;8.560;2023-02-20T08:51:01;100596.94;;;5.78;100.00
31096;BME280;17749;51.962;8.560;2023-02-20T08:53:28;100603.94;;;5.82;100.00
31096;BME280;17749;51.962;8.560;2023-02-20T08:55:55;100607.41;;;5.84;100.00
31096;BME280;17749;51.962;8.560;2023-02-20T08:58:23;100616.25;;;5.84;100.00
31096;BME280;17749;51.962;8.560;2023-02-20T09:00:51;100606.50;;;5.86;100.00
31096;BME280;17749;51.962;8.560;2023-02-20T09:03:18;100603.13;;;5.77;100.00
31096;BME280;17749;51.962;8.560;2023-02-20T09:05:44;100603.03;;;5.83;100.00
31096;BME280;17749;51.962;8.560;2023-02-20T09:08:12;100599.53;;;5.81;100.00
31096;BME280;17749;51.962;8.560;2023-02-20T09:10:41;100604.75;;;5.85;100.00
31096;BME280;17749;51.962;8.560;2023-02-20T09:13:09;100603.84;;;5.88;100.00
31096;BME280;17749;51.962;8.560;2023-02-20T09:15:36;100596.00;;;5.82;100.00
31096;BME280;17749;51.962;8.560;2023-02-20T09:18:07;100595.06;;;5.86;100.00
31096;BME280;17749;51.962;8.560;2023-02-20T09:20:35;100589.69;;;5.93;100.00
31096;BME280;17749;51.962;8.560;2023-02-20T09:23:04;100580.00;;;5.94;100.00
31096;BME280;17749;51.962;8.560;2023-02-20T09:25:31;100575.47;;;6.02;100.00
31096;BME280;17749;51.962;8.560;2023-02-20T09:27:58;100589.50;;;6.10;100.00
31096;BME280;17749;51.962;8.560;2023-02-20T09:30:25;100572.75;;;6.08;100.00
31096;BME280;17749;51.962;8.560;2023-02-20T09:32:52;100575.41;;;6.08;100.00
31096;BME280;17749;51.962;8.560;2023-02-20T09:35:23;100563.06;;;6.07;100.00
31096;BME280;17749;51.962;8.560;2023-02-20T09:37:51;100568.28;;;6.13;100.00
31096;BME280;17749;51.962;8.560;2023-02-20T09:40:26;100565.63;;;6.13;100.00
31096;BME280;17749;51.962;8.560;2023-02-20T09:45:58;100561.97;;;6.24;100.00
31096;BME280;17749;51.962;8.560;2023-02-20T09:51:36;100556.59;;;6.28;100.00
31096;BME280;17749;51.962;8.560;2023-02-20T09:54:11;100555.59;;;6.37;100.00
31096;BME280;17749;51.962;8.560;2023-02-20T09:56:41;100550.25;;;6.40;100.00
31096;BME280;17749;51.962;8.560;2023-02-20T09:59:21;100546.69;;;6.41;100.00
31096;BME280;17749;51.962;8.560;2023-02-20T10:02:00;100554.63;;;6.41;100.00
31096;BME280;17749;51.962;8.560;2023-02-20T10:04:52;100560.78;;;6.43;100.00
31096;BME280;17749;51.962;8.560;2023-02-20T10:07:33;100545.75;;;6.44;100.00
31096;BME280;17749;51.962;8.560;2023-02-20T10:10:17;100545.81;;;6.42;100.00
31096;BME280;17749;51.962;8.560;2023-02-20T10:15:56;100545.81;;;6.41;100.00
31096;BME280;17749;51.962;8.560;2023-02-20T10:18:56;100543.19;;;6.39;100.00
31096;BME280;17749;51.962;8.560;2023-02-20T10:26:47;100532.41;;;6.51;100.00
31096;BME280;17749;51.962;8.560;2023-02-20T10:29:20;100530.63;;;6.53;100.00
31096;BME280;17749;51.962;8.560;2023-02-20T10:32:01;100533.25;;;6.55;100.00
31096;BME280;17749;51.962;8.560;2023-02-20T10:34:33;100524.53;;;6.48;100.00
31096;BME280;17749;51.962;8.560;2023-02-20T10:37:16;100522.75;;;6.49;100.00
31096;BME280;17749;51.962;8.560;2023-02-20T10:45:26;100504.16;;;6.53;100.00
31096;BME280;17749;51.962;8.560;2023-02-20T10:48:04;100518.19;;;6.57;100.00
31096;BME280;17749;51.962;8.560;2023-02-20T10:50:47;100509.28;;;6.63;100.00
31096;BME280;17749;51.962;8.560;2023-02-20T10:53:36;100519.91;;;6.59;100.00
31096;BME280;17749;51.962;8.560;2023-02-20T10:56:11;100516.41;;;6.57;100.00
31096;BME280;17749;51.962;8.560;2023-02-20T11:01:44;100535.66;;;6.69;100.00
31096;BME280;17749;51.962;8.560;2023-02-20T11:04:24;100539.16;;;6.71;100.00
31096;BME280;17749;51.962;8.560;2023-02-20T11:06:56;100530.41;;;6.66;100.00
31096;BME280;17749;51.962;8.560;2023-02-20T11:09:27;100531.38;;;6.62;100.00
31096;BME280;17749;51.962;8.560;2023-02-20T11:11:54;100542.75;;;6.67;100.00
31096;BME280;17749;51.962;8.560;2023-02-20T11:14:31;100540.03;;;6.70;100.00
31096;BME280;17749;51.962;8.560;2023-02-20T11:17:27;100535.72;;;6.66;100.00
31096;BME280;17749;51.962;8.560;2023-02-20T11:19:57;100526.06;;;6.62;100.00
31096;BME280;17749;51.962;8.560;2023-02-20T11:22:39;100532.22;;;6.64;100.00
31096;BME280;17749;51.962;8.560;2023-02-20T11:25:19;100524.22;;;6.67;100.00
31096;BME280;17749;51.962;8.560;2023-02-20T11:27:49;100511.91;;;6.63;100.00
31096;BME280;17749;51.962;8.560;2023-02-20T11:32:48;100529.50;;;6.68;100.00
31096;BME280;17749;51.962;8.560;2023-02-20T11:37:51;100518.91;;;6.68;100.00
31096;BME280;17749;51.962;8.560;2023-02-20T11:40:37;100510.91;;;6.71;100.00
31096;BME280;17749;51.962;8.560;2023-02-20T11:43:18;100512.66;;;6.72;100.00
31096;BME280;17749;51.962;8.560;2023-02-20T11:45:47;100514.38;;;6.75;100.00
31096;BME280;17749;51.962;8.560;2023-02-20T11:48:16;100500.34;;;6.70;100.00
31096;BME280;17749;51.962;8.560;2023-02-20T11:50:45;100496.75;;;6.72;100.00
31096;BME280;17749;51.962;8.560;2023-02-20T11:53:28;100515.16;;;6.80;100.00
31096;BME280;17749;51.962;8.560;2023-02-20T11:56:11;100503.63;;;6.84;100.00
31096;BME280;17749;51.962;8.560;2023-02-20T11:58:39;100494.91;;;6.79;100.00
31096;BME280;17749;51.962;8.560;2023-02-20T12:01:31;100481.53;;;6.84;100.00
31096;BME280;17749;51.962;8.560;2023-02-20T12:03:59;100485.09;;;6.84;100.00
31096;BME280;17749;51.962;8.560;2023-02-20T12:09:03;100468.22;;;6.88;100.00
31096;BME280;17749;51.962;8.560;2023-02-20T12:11:32;100477.03;;;6.90;100.00
31096;BME280;17749;51.962;8.560;2023-02-20T12:13:59;100471.72;;;6.92;100.00
31096;BME280;17749;51.962;8.560;2023-02-20T12:19:37;100452.28;;;6.91;100.00
31096;BME280;17749;51.962;8.560;2023-02-20T12:28:09;100443.31;;;6.98;100.00
31096;BME280;17749;51.962;8.560;2023-02-20T12:30:55;100452.81;;;7.09;100.00
31096;BME280;17749;51.962;8.560;2023-02-20T12:33:50;100457.34;;;7.03;100.00
31096;BME280;17749;51.962;8.560;2023-02-20T12:36:39;100460.75;;;7.10;100.00
31096;BME280;17749;51.962;8.560;2023-02-20T13:01:00;100465.13;;;7.13;100.00
31096;BME280;17749;51.962;8.560;2023-02-20T13:06:40;100467.78;;;7.11;100.00
31096;BME280;17749;51.962;8.560;2023-02-20T13:09:23;100464.28;;;7.11;100.00
31096;BME280;17749;51.962;8.560;2023-02-20T13:11:55;100449.09;;;7.17;100.00
31096;BME280;17749;51.962;8.560;2023-02-20T13:19:57;100449.06;;;7.20;100.00
31096;BME280;17749;51.962;8.560;2023-02-20T13:22:26;100444.72;;;7.18;100.00
31096;BME280;17749;51.962;8.560;2023-02-20T13:24:53;100439.34;;;7.21;100.00
31096;BME280;17749;51.962;8.560;2023-02-20T13:27:29;100415.44;;;7.24;100.00
31096;BME280;17749;51.962;8.560;2023-02-20T13:30:00;100418.88;;;7.28;100.00
31096;BME280;17749;51.962;8.560;2023-02-20T13:32:30;100417.06;;;7.30;100.00
31096;BME280;17749;51.962;8.560;2023-02-20T13:35:37;100417.16;;;7.27;100.00
31096;BME280;17749;51.962;8.560;2023-02-20T13:38:12;100429.47;;;7.28;100.00
31096;BME280;17749;51.962;8.560;2023-02-20T13:41:06;100428.59;;;7.27;100.00
31096;BME280;17749;51.962;8.560;2023-02-20T13:43:32;100411.03;;;7.23;100.00
31096;BME280;17749;51.962;8.560;2023-02-20T13:54:11;100429.56;;;7.23;100.00
31096;BME280;17749;51.962;8.560;2023-02-20T13:57:12;100423.31;;;7.27;100.00
31096;BME280;17749;51.962;8.560;2023-02-20T13:59:42;100418.09;;;7.24;100.00
31096;BME280;17749;51.962;8.560;2023-02-20T14:02:22;100409.28;;;7.22;100.00
31096;BME280;17749;51.962;8.560;2023-02-20T14:05:04;100399.59;;;7.21;100.00
31096;BME280;17749;51.962;8.560;2023-02-20T14:07:43;100413.50;;;7.31;100.00
31096;BME280;17749;51.962;8.560;2023-02-20T14:10:24;100405.53;;;7.32;100.00
31096;BME280;17749;51.962;8.560;2023-02-20T14:15:45;100412.44;;;7.39;100.00
31096;BME280;17749;51.962;8.560;2023-02-20T14:18:33;100396.47;;;7.42;100.00
31096;BME280;17749;51.962;8.560;2023-02-20T14:21:07;100389.38;;;7.44;100.00
31096;BME280;17749;51.962;8.560;2023-02-20T14:23:36;100392.91;;;7.43;100.00
31096;BME280;17749;51.962;8.560;2023-02-20T14:26:09;100375.38;;;7.38;100.00
31096;BME280;17749;51.962;8.560;2023-02-20T14:28:45;100379.03;;;7.32;100.00
31096;BME280;17749;51.962;8.560;2023-02-20T14:31:33;100377.16;;;7.37;100.00
31096;BME280;17749;51.962;8.560;2023-02-20T14:34:12;100384.16;;;7.41;100.00
31096;BME280;17749;51.962;8.560;2023-02-20T14:37:00;100380.66;;;7.39;100.00
31096;BME280;17749;51.962;8.560;2023-02-20T14:40:18;100392.22;;;7.35;100.00
31096;BME280;17749;51.962;8.560;2023-02-20T14:42:49;100380.78;;;7.33;100.00
31096;BME280;17749;51.962;8.560;2023-02-20T14:45:23;100382.53;;;7.34;100.00
31096;BME280;17749;51.962;8.560;2023-02-20T14:47:57;100379.88;;;7.34;100.00
31096;BME280;17749;51.962;8.560;2023-02-20T14:50:31;100382.47;;;7.37;100.00
31096;BME280;17749;51.962;8.560;2023-02-20T14:55:48;100388.47;;;7.44;100.00
31096;BME280;17749;51.962;8.560;2023-02-20T14:58:18;100392.16;;;7.38;100.00
31096;BME280;17749;51.962;8.560;2023-02-20T15:00:46;100383.19;;;7.44;100.00
31096;BME280;17749;51.962;8.560;2023-02-20T15:03:25;100382.25;;;7.46;100.00
31096;BME280;17749;51.962;8.560;2023-02-20T15:06:03;100396.47;;;7.42;100.00
31096;BME280;17749;51.962;8.560;2023-02-20T15:08:35;100386.84;;;7.38;100.00
31096;BME280;17749;51.962;8.560;2023-02-20T15:11:09;100385.97;;;7.39;100.00
31096;BME280;17749;51.962;8.560;2023-02-20T15:13:43;100388.59;;;7.39;100.00
31096;BME280;17749;51.962;8.560;2023-02-20T15:18:43;100382.53;;;7.34;100.00
31096;BME280;17749;51.962;8.560;2023-02-20T15:21:13;100366.72;;;7.31;100.00
31096;BME280;17749;51.962;8.560;2023-02-20T15:23:45;100372.06;;;7.28;100.00
31096;BME280;17749;51.962;8.560;2023-02-20T15:26:35;100370.31;;;7.27;100.00
31096;BME280;17749;51.962;8.560;2023-02-20T15:29:27;100371.88;;;7.37;100.00
31096;BME280;17749;51.962;8.560;2023-02-20T15:31:59;100374.50;;;7.39;100.00
31096;BME280;17749;51.962;8.560;2023-02-20T15:34:35;100380.69;;;7.38;100.00
31096;BME280;17749;51.962;8.560;2023-02-20T15:37:18;100388.63;;;7.38;100.00
31096;BME280;17749;51.962;8.560;2023-02-20T15:39:53;100379.88;;;7.34;100.00
31096;BME280;17749;51.962;8.560;2023-02-20T15:42:23;100386.75;;;7.43;100.00
31096;BME280;17749;51.962;8.560;2023-02-20T15:44:50;100380.59;;;7.42;100.00
31096;BME280;17749;51.962;8.560;2023-02-20T15:47:18;100381.50;;;7.41;100.00
31096;BME280;17749;51.962;8.560;2023-02-20T15:49:46;100372.78;;;7.36;100.00
31096;BME280;17749;51.962;8.560;2023-02-20T15:52:16;100378.19;;;7.32;100.00
31096;BME280;17749;51.962;8.560;2023-02-20T15:54:50;100382.63;;;7.31;100.00
31096;BME280;17749;51.962;8.560;2023-02-20T15:57:19;100381.69;;;7.32;100.00
31096;BME280;17749;51.962;8.560;2023-02-20T15:59:47;100387.94;;;7.28;100.00
31096;BME280;17749;51.962;8.560;2023-02-20T16:02:17;100383.56;;;7.27;100.00
31096;BME280;17749;51.962;8.560;2023-02-20T16:04:47;100392.28;;;7.32;100.00
31096;BME280;17749;51.962;8.560;2023-02-20T16:07:16;100401.09;;;7.33;100.00
31096;BME280;17749;51.962;8.560;2023-02-20T16:09:44;100397.69;;;7.28;100.00
31096;BME280;17749;51.962;8.560;2023-02-20T16:12:15;100403.91;;;7.25;100.00
31096;BME280;17749;51.962;8.560;2023-02-20T16:14:43;100397.75;;;7.24;100.00
31096;BME280;17749;51.962;8.560;2023-02-20T16:17:22;100397.84;;;7.20;100.00
31096;BME280;17749;51.962;8.560;2023-02-20T16:19:50;100388.16;;;7.20;100.00
31096;BME280;17749;51.962;8.560;2023-02-20T16:22:18;100388.25;;;7.16;100.00
31096;BME280;17749;51.962;8.560;2023-02-20T16:24:45;100387.41;;;7.14;100.00
31096;BME280;17749;51.962;8.560;2023-02-20T16:27:19;100393.47;;;7.19;100.00
31096;BME280;17749;51.962;8.560;2023-02-20T16:29:51;100405.78;;;7.20;100.00
31096;BME280;17749;51.962;8.560;2023-02-20T16:32:27;100401.44;;;7.17;100.00
31096;BME280;17749;51.962;8.560;2023-02-20T16:34:57;100396.88;;;7.24;100.00
31096;BME280;17749;51.962;8.560;2023-02-20T16:37:25;100405.69;;;7.26;100.00
31096;BME280;17749;51.962;8.560;2023-02-20T16:39:57;100395.19;;;7.20;100.00
31096;BME280;17749;51.962;8.560;2023-02-20T16:42:31;100395.28;;;7.17;100.00
31096;BME280;17749;51.962;8.560;2023-02-20T16:45:12;100401.34;;;7.22;100.00
31096;BME280;17749;51.962;8.560;2023-02-20T16:47:40;100402.25;;;7.21;100.00
31096;BME280;17749;51.962;8.560;2023-02-20T16:50:17;100405.69;;;7.26;100.00
31096;BME280;17749;51.962;8.560;2023-02-20T16:52:48;100404.03;;;7.20;100.00
31096;BME280;17749;51.962;8.560;2023-02-20T16:55:31;100412.94;;;7.16;100.00
31096;BME280;17749;51.962;8.560;2023-02-20T16:57:59;100411.38;;;7.08;100.00
31096;BME280;17749;51.962;8.560;2023-02-20T17:00:37;100414.84;;;7.10;100.00
31096;BME280;17749;51.962;8.560;2023-02-20T17:03:22;100410.47;;;7.09;100.00
31096;BME280;17749;51.962;8.560;2023-02-20T17:05:49;100418.31;;;7.13;100.00
31096;BME280;17749;51.962;8.560;2023-02-20T17:08:25;100420.09;;;7.13;100.00
31096;BME280;17749;51.962;8.560;2023-02-20T17:10:52;100418.25;;;7.15;100.00
31096;BME280;17749;51.962;8.560;2023-02-20T17:13:19;100430.63;;;7.16;100.00
31096;BME280;17749;51.962;8.560;2023-02-20T17:15:46;100406.94;;;7.08;100.00
31096;BME280;17749;51.962;8.560;2023-02-20T17:18:26;100417.53;;;7.08;100.00
31096;BME280;17749;51.962;8.560;2023-02-20T17:20:53;100414.91;;;7.07;100.00
31096;BME280;17749;51.962;8.560;2023-02-20T17:23:20;100422.84;;;7.08;100.00
31096;BME280;17749;51.962;8.560;2023-02-20T17:25:47;100430.78;;;7.07;100.00
31096;BME280;17749;51.962;8.560;2023-02-20T17:28:14;100424.56;;;7.09;100.00
31096;BME280;17749;51.962;8.560;2023-02-20T17:30:42;100433.44;;;7.08;100.00
31096;BME280;17749;51.962;8.560;2023-02-20T17:33:09;100427.13;;;7.14;100.00
31096;BME280;17749;51.962;8.560;2023-02-20T17:35:36;100430.63;;;7.16;100.00
31096;BME280;17749;51.962;8.560;2023-02-20T17:38:02;100418.47;;;7.06;100.00
31096;BME280;17749;51.962;8.560;2023-02-20T17:40:29;100423.69;;;7.09;100.00
31096;BME280;17749;51.962;8.560;2023-02-20T17:42:56;100421.91;;;7.09;100.00
31096;BME280;17749;51.962;8.560;2023-02-20T17:45:26;100418.47;;;7.06;100.00
31096;BME280;17749;51.962;8.560;2023-02-20T17:47:53;100421.91;;;7.11;100.00
31096;BME280;17749;51.962;8.560;2023-02-20T17:50:20;100416.66;;;7.08;100.00
31096;BME280;17749;51.962;8.560;2023-02-20T17:52:47;100412.16;;;7.13;100.00
31096;BME280;17749;51.962;8.560;2023-02-20T17:55:17;100421.75;;;7.17;100.00
31096;BME280;17749;51.962;8.560;2023-02-20T17:57:45;100415.53;;;7.19;100.00
31096;BME280;17749;51.962;8.560;2023-02-20T18:00:12;100419.97;;;7.19;100.00
31096;BME280;17749;51.962;8.560;2023-02-20T18:02:40;100416.38;;;7.20;100.00
31096;BME280;17749;51.962;8.560;2023-02-20T18:05:07;100416.44;;;7.18;100.00
31096;BME280;17749;51.962;8.560;2023-02-20T18:07:34;100421.75;;;7.17;100.00
31096;BME280;17749;51.962;8.560;2023-02-20T18:10:01;100420.88;;;7.18;100.00
31096;BME280;17749;51.962;8.560;2023-02-20T18:12:28;100412.97;;;7.15;100.00
31096;BME280;17749;51.962;8.560;2023-02-20T18:14:55;100425.38;;;7.13;100.00
31096;BME280;17749;51.962;8.560;2023-02-20T18:17:23;100429.72;;;7.17;100.00
31096;BME280;17749;51.962;8.560;2023-02-20T18:19:50;100413.78;;;7.18;100.00
31096;BME280;17749;51.962;8.560;2023-02-20T18:22:20;100426.03;;;7.22;100.00
31096;BME280;17749;51.962;8.560;2023-02-20T18:24:47;100423.44;;;7.21;100.00
31096;BME280;17749;51.962;8.560;2023-02-20T18:27:15;100424.34;;;7.20;100.00
31096;BME280;17749;51.962;8.560;2023-02-20T18:29:43;100423.53;;;7.16;100.00
31096;BME280;17749;51.962;8.560;2023-02-20T18:32:10;100426.97;;;7.20;100.00
31096;BME280;17749;51.962;8.560;2023-02-20T18:34:37;100419.88;;;7.22;100.00
31096;BME280;17749;51.962;8.560;2023-02-20T18:37:04;100421.69;;;7.20;100.00
31096;BME280;17749;51.962;8.560;2023-02-20T18:39:31;100417.28;;;7.20;100.00
31096;BME280;17749;51.962;8.560;2023-02-20T18:41:58;100416.38;;;7.20;100.00
31096;BME280;17749;51.962;8.560;2023-02-20T18:44:25;100414.66;;;7.19;100.00
31096;BME280;17749;51.962;8.560;2023-02-20T18:46:53;100418.22;;;7.18;100.00
31096;BME280;17749;51.962;8.560;2023-02-20T18:49:20;100417.22;;;7.23;100.00
31096;BME280;17749;51.962;8.560;2023-02-20T18:51:47;100412.72;;;7.27;100.00
31096;BME280;17749;51.962;8.560;2023-02-20T18:54:17;100406.63;;;7.23;100.00
31096;BME280;17749;51.962;8.560;2023-02-20T18:56:47;100410.97;;;7.26;100.00
31096;BME280;17749;51.962;8.560;2023-02-20T18:59:15;100412.78;;;7.24;100.00
31096;BME280;17749;51.962;8.560;2023-02-20T19:01:42;100409.16;;;7.28;100.00
31096;BME280;17749;51.962;8.560;2023-02-20T19:04:11;100409.13;;;7.30;100.00
31096;BME280;17749;51.962;8.560;2023-02-20T19:06:39;100414.50;;;7.25;100.00
31096;BME280;17749;51.962;8.560;2023-02-20T19:09:14;100409.22;;;7.25;100.00
31096;BME280;17749;51.962;8.560;2023-02-20T19:11:48;100413.56;;;7.28;100.00
31096;BME280;17749;51.962;8.560;2023-02-20T19:14:15;100418.00;;;7.27;100.00
31096;BME280;17749;51.962;8.560;2023-02-20T19:16:56;100412.72;;;7.25;100.00
31096;BME280;17749;51.962;8.560;2023-02-20T19:19:27;100408.34;;;7.24;100.00
31096;BME280;17749;51.962;8.560;2023-02-20T19:21:57;100403.91;;;7.25;100.00
31096;BME280;17749;51.962;8.560;2023-02-20T19:24:24;100414.50;;;7.25;100.00
31096;BME280;17749;51.962;8.560;2023-02-20T19:26:51;100411.84;;;7.27;100.00
31096;BME280;17749;51.962;8.560;2023-02-20T19:29:18;100410.91;;;7.29;100.00
31096;BME280;17749;51.962;8.560;2023-02-20T19:31:45;100403.84;;;7.28;100.00
31096;BME280;17749;51.962;8.560;2023-02-20T19:34:13;100396.75;;;7.30;100.00
31096;BME280;17749;51.962;8.560;2023-02-20T19:36:40;100397.59;;;7.32;100.00
31096;BME280;17749;51.962;8.560;2023-02-20T19:39:08;100400.25;;;7.32;100.00
31096;BME280;17749;51.962;8.560;2023-02-20T19:41:35;100400.25;;;7.32;100.00
31096;BME280;17749;51.962;8.560;2023-02-20T19:44:04;100384.41;;;7.29;100.00
31096;BME280;17749;51.962;8.560;2023-02-20T19:46:31;100387.94;;;7.28;100.00
31096;BME280;17749;51.962;8.560;2023-02-20T19:48:58;100388.88;;;7.27;100.00
31096;BME280;17749;51.962;8.560;2023-02-20T19:51:25;100373.81;;;7.29;100.00
31096;BME280;17749;51.962;8.560;2023-02-20T19:53:52;100364.09;;;7.28;100.00
31096;BME280;17749;51.962;8.560;2023-02-20T19:56:19;100371.19;;;7.28;100.00
31096;BME280;17749;51.962;8.560;2023-02-20T19:58:46;100366.72;;;7.31;100.00
31096;BME280;17749;51.962;8.560;2023-02-20T20:01:16;100364.88;;;7.33;100.00
31096;BME280;17749;51.962;8.560;2023-02-20T20:03:45;100363.22;;;7.29;100.00
31096;BME280;17749;51.962;8.560;2023-02-20T20:06:14;100368.59;;;7.26;100.00
31096;BME280;17749;51.962;8.560;2023-02-20T20:08:42;100365.09;;;7.24;100.00
31096;BME280;17749;51.962;8.560;2023-02-20T20:11:29;100364.09;;;7.28;100.00
31096;BME280;17749;51.962;8.560;2023-02-20T20:13:56;100365.72;;;7.35;100.00
31096;BME280;17749;51.962;8.560;2023-02-20T20:16:23;100362.22;;;7.33;100.00
31096;BME280;17749;51.962;8.560;2023-02-20T20:18:50;100370.06;;;7.39;100.00
31096;BME280;17749;51.962;8.560;2023-02-20T20:21:19;100358.59;;;7.39;100.00
31096;BME280;17749;51.962;8.560;2023-02-20T20:23:46;100363.06;;;7.35;100.00
31096;BME280;17749;51.962;8.560;2023-02-20T20:26:13;100369.19;;;7.39;100.00
31096;BME280;17749;51.962;8.560;2023-02-20T20:28:40;100364.75;;;7.39;100.00
31096;BME280;17749;51.962;8.560;2023-02-20T20:31:07;100365.69;;;7.37;100.00
31096;BME280;17749;51.962;8.560;2023-02-20T20:33:34;100370.13;;;7.36;100.00
31096;BME280;17749;51.962;8.560;2023-02-20T20:36:01;100373.56;;;7.41;100.00
31096;BME280;17749;51.962;8.560;2023-02-20T20:38:28;100379.75;;;7.40;100.00
31096;BME280;17749;51.962;8.560;2023-02-20T20:40:55;100364.72;;;7.41;100.00